createdAt,value
2022-08-17T00:01:31.457Z,80.65
2022-08-17T00:04:19.332Z,81.41
2022-08-17T00:06:49.083Z,82.67
2022-08-17T00:09:18.792Z,82.74
2022-08-17T00:12:03.905Z,83.55
2022-08-17T00:14:35.584Z,84.45
2022-08-17T00:17:03.828Z,84.98
2022-08-17T00:19:32.618Z,84.87
2022-08-17T00:22:32.623Z,84.49
2022-08-17T00:24:49.764Z,84.34
2022-08-17T00:27:16.284Z,84.09
2022-08-17T00:29:45.512Z,84.29
2022-08-17T00:33:14.163Z,84.52
2022-08-17T00:35:06.101Z,84.36
2022-08-17T00:37:32.684Z,84.40
2022-08-17T00:39:59.307Z,84.24
2022-08-17T00:42:30.790Z,84.52
2022-08-17T00:44:58.126Z,85.14
2022-08-17T00:47:24.836Z,85.52
2022-08-17T00:49:51.815Z,85.68
2022-08-17T00:52:23.161Z,85.55
2022-08-17T00:54:54.352Z,85.74
2022-08-17T00:57:39.321Z,85.84
2022-08-17T01:00:14.116Z,85.99
2022-08-17T01:02:44.067Z,85.77
2022-08-17T01:05:20.682Z,85.43
2022-08-17T01:07:51.015Z,85.64
2022-08-17T01:10:58.841Z,86.28
2022-08-17T01:13:09.677Z,86.63
2022-08-17T01:15:38.759Z,87.42
2022-08-17T01:18:08.750Z,87.68
2022-08-17T01:20:48.272Z,88.44
2022-08-17T01:23:18.534Z,88.82
2022-08-17T01:25:56.564Z,88.56
2022-08-17T01:28:52.716Z,88.21
2022-08-17T01:31:13.272Z,87.84
2022-08-17T01:33:40.492Z,87.30
2022-08-17T01:36:07.987Z,87.29
2022-08-17T01:38:35.867Z,87.72
2022-08-17T01:41:07.928Z,87.69
2022-08-17T01:44:02.540Z,87.26
2022-08-17T01:46:34.001Z,86.96
2022-08-17T01:49:01.464Z,86.24
2022-08-17T01:51:33.509Z,86.28
2022-08-17T01:54:05.306Z,86.03
2022-08-17T01:56:33.144Z,85.96
2022-08-17T01:58:59.915Z,86.71
2022-08-17T02:01:31.728Z,86.90
2022-08-17T02:04:00.431Z,86.91
2022-08-17T02:06:53.764Z,87.37
2022-08-17T02:09:25.396Z,87.47
2022-08-17T02:11:53.390Z,87.59
2022-08-17T02:14:21.027Z,87.18
2022-08-17T02:16:47.537Z,87.49
2022-08-17T02:19:16.156Z,87.21
2022-08-17T02:21:46.155Z,87.51
2022-08-17T02:24:58.812Z,86.95
2022-08-17T02:27:07.639Z,86.91
2022-08-17T02:29:34.282Z,86.67
2022-08-17T02:32:01.861Z,86.43
2022-08-17T02:34:28.968Z,86.37
2022-08-17T02:36:55.911Z,86.64
2022-08-17T02:39:22.431Z,86.62
2022-08-17T02:41:48.996Z,86.66
2022-08-17T02:44:38.975Z,86.24
2022-08-17T02:47:02.194Z,86.31
2022-08-17T02:49:28.824Z,86.32
2022-08-17T02:51:57.117Z,86.04
2022-08-17T02:54:39.672Z,85.71
2022-08-17T02:57:09.266Z,85.69
2022-08-17T02:59:35.743Z,86.09
2022-08-17T03:02:07.552Z,86.29
2022-08-17T03:04:35.170Z,86.31
2022-08-17T03:07:02.817Z,86.34
2022-08-17T03:09:29.380Z,86.14
2022-08-17T03:12:03.455Z,86.28
2022-08-17T03:14:32.253Z,86.39
2022-08-17T03:16:59.247Z,86.19
2022-08-17T03:19:25.945Z,86.14
2022-08-17T03:21:55.135Z,86.27
2022-08-17T03:24:26.805Z,85.89
2022-08-17T03:26:55.736Z,86.06
2022-08-17T03:29:22.395Z,86.06
2022-08-17T03:31:50.182Z,86.18
2022-08-17T03:34:17.287Z,86.25
2022-08-17T03:36:44.392Z,85.49
2022-08-17T03:39:10.931Z,85.07
2022-08-17T03:41:39.432Z,85.12
2022-08-17T03:44:06.072Z,85.51
2022-08-17T03:46:51.176Z,85.19
2022-08-17T03:49:36.031Z,85.46
2022-08-17T03:52:21.470Z,85.34
2022-08-17T03:55:06.493Z,85.24
2022-08-17T03:57:33.076Z,85.35
2022-08-17T03:59:59.881Z,85.42
2022-08-17T04:02:31.140Z,85.35
2022-08-17T04:04:58.667Z,85.30
2022-08-17T04:07:28.227Z,85.22
2022-08-17T04:09:54.748Z,85.17
2022-08-17T04:12:23.572Z,85.07
2022-08-17T04:14:53.540Z,85.14
2022-08-17T04:17:26.221Z,84.64
2022-08-17T04:19:53.638Z,84.45
2022-08-17T04:22:31.130Z,84.52
2022-08-17T04:25:01.418Z,84.69
2022-08-17T04:27:27.916Z,84.52
2022-08-17T04:29:55.957Z,85.34
2022-08-17T04:32:25.161Z,85.88
2022-08-17T04:35:09.853Z,85.92
2022-08-17T04:37:36.352Z,86.17
2022-08-17T04:40:22.650Z,86.14
2022-08-17T04:43:10.630Z,86.09
2022-08-17T04:45:55.266Z,85.97
2022-08-17T04:48:34.749Z,85.89
2022-08-17T04:51:09.921Z,86.04
2022-08-17T04:53:37.976Z,86.23
2022-08-17T04:56:04.943Z,85.97
2022-08-17T04:58:31.649Z,85.95
2022-08-17T05:00:58.329Z,85.90
2022-08-17T05:03:24.938Z,85.83
2022-08-17T05:05:51.512Z,85.78
2022-08-17T05:08:19.561Z,86.04
2022-08-17T05:10:47.270Z,86.12
2022-08-17T05:13:21.636Z,86.21
2022-08-17T05:15:50.168Z,86.09
2022-08-17T05:18:17.535Z,85.38
2022-08-17T05:20:44.601Z,84.99
2022-08-17T05:23:13.755Z,84.64
2022-08-17T05:25:47.328Z,84.02
2022-08-17T05:28:16.173Z,84.14
2022-08-17T05:30:44.047Z,84.22
2022-08-17T05:33:16.827Z,84.04
2022-08-17T05:35:47.773Z,83.63
2022-08-17T05:38:16.348Z,83.13
2022-08-17T05:40:44.113Z,83.12
2022-08-17T05:43:16.957Z,82.50
2022-08-17T05:45:56.446Z,81.59
2022-08-17T05:48:35.511Z,81.20
2022-08-17T05:51:15.011Z,80.85
2022-08-17T05:54:06.596Z,78.78
2022-08-17T05:57:00.014Z,76.72
2022-08-17T05:59:35.429Z,77.91
2022-08-17T06:02:16.276Z,77.77
2022-08-17T06:05:03.965Z,76.87
2022-08-17T06:07:49.769Z,76.44
2022-08-17T06:10:40.531Z,75.90
2022-08-17T06:13:36.630Z,72.84
2022-08-17T06:16:32.918Z,72.85
2022-08-17T06:19:06.143Z,72.96
2022-08-17T06:21:39.850Z,73.15
2022-08-17T06:24:21.600Z,72.53
2022-08-17T06:26:48.864Z,71.06
2022-08-17T06:29:49.602Z,71.10
2022-08-17T06:32:17.230Z,68.03
2022-08-17T06:34:46.011Z,67.62
2022-08-17T06:37:35.632Z,66.87
2022-08-17T06:40:05.979Z,67.63
2022-08-17T06:43:02.716Z,65.21
2022-08-17T06:45:49.468Z,64.35
2022-08-17T06:48:42.682Z,64.25
2022-08-17T06:51:30.091Z,64.43
2022-08-17T06:54:19.958Z,64.76
2022-08-17T06:57:05.243Z,64.09
2022-08-17T06:59:55.777Z,63.65
2022-08-17T07:02:52.249Z,64.98
2022-08-17T07:05:22.364Z,65.20
2022-08-17T07:08:35.300Z,67.16
2022-08-17T07:11:28.178Z,66.89
2022-08-17T07:14:27.747Z,66.47
2022-08-17T07:16:56.736Z,66.36
2022-08-17T07:19:32.873Z,65.67
2022-08-17T07:22:25.775Z,64.92
2022-08-17T07:24:58.607Z,63.87
2022-08-17T07:27:27.638Z,64.51
2022-08-17T07:30:19.379Z,63.80
2022-08-17T07:32:57.350Z,63.12
2022-08-17T07:35:37.541Z,62.78
2022-08-17T07:38:24.638Z,62.98
2022-08-17T07:41:02.827Z,61.08
2022-08-17T07:43:31.931Z,60.01
2022-08-17T07:46:37.300Z,59.22
2022-08-17T07:49:03.757Z,60.07
2022-08-17T07:51:44.473Z,60.92
2022-08-17T07:54:23.111Z,59.61
2022-08-17T07:57:00.329Z,58.93
2022-08-17T07:59:40.765Z,55.35
2022-08-17T08:02:31.696Z,55.18
2022-08-17T08:05:02.344Z,55.03
2022-08-17T08:07:34.948Z,53.21
2022-08-17T08:10:38.475Z,52.10
2022-08-17T08:13:22.358Z,51.20
2022-08-17T08:15:55.409Z,51.30
2022-08-17T08:18:38.649Z,50.77
2022-08-17T08:21:18.366Z,50.68
2022-08-17T08:23:50.344Z,51.08
2022-08-17T08:26:41.384Z,50.78
2022-08-17T08:29:39.637Z,50.74
2022-08-17T08:32:21.068Z,50.03
2022-08-17T08:35:08.532Z,49.56
2022-08-17T08:37:59.421Z,47.89
2022-08-17T08:40:35.034Z,44.71
2022-08-17T08:43:36.250Z,43.29
2022-08-17T08:46:11.501Z,42.67
2022-08-17T08:49:09.967Z,42.61
2022-08-17T08:52:08.730Z,42.08
2022-08-17T08:54:48.270Z,42.77
2022-08-17T08:57:29.400Z,40.93
2022-08-17T09:00:02.501Z,40.44
2022-08-17T09:02:41.373Z,39.73
2022-08-17T09:05:16.980Z,39.12
2022-08-17T09:08:03.329Z,39.46
2022-08-17T09:11:02.475Z,39.78
2022-08-17T09:13:39.489Z,39.61
2022-08-17T09:16:30.632Z,38.08
2022-08-17T09:19:18.919Z,39.81
2022-08-17T09:21:48.996Z,39.61
2022-08-17T09:24:28.349Z,39.49
2022-08-17T09:27:02.452Z,40.09
2022-08-17T09:29:35.185Z,38.07
2022-08-17T09:32:10.627Z,36.49
2022-08-17T09:34:44.549Z,36.58
2022-08-17T09:37:52.140Z,36.29
2022-08-17T09:40:59.295Z,36.02
2022-08-17T09:43:50.591Z,36.29
2022-08-17T09:46:25.735Z,36.42
2022-08-17T09:48:57.349Z,36.30
2022-08-17T09:51:40.512Z,34.91
2022-08-17T09:54:38.113Z,35.79
2022-08-17T09:57:30.512Z,35.21
2022-08-17T10:00:15.808Z,35.20
2022-08-17T10:03:00.585Z,34.06
2022-08-17T10:06:06.627Z,33.39
2022-08-17T10:08:43.173Z,34.99
2022-08-17T10:11:33.425Z,33.92
2022-08-17T10:14:37.990Z,34.08
2022-08-17T10:17:23.418Z,34.54
2022-08-17T10:20:23.376Z,35.16
2022-08-17T10:23:18.133Z,34.09
2022-08-17T10:26:14.299Z,33.49
2022-08-17T10:29:05.712Z,33.23
2022-08-17T10:31:40.808Z,34.23
2022-08-17T10:34:45.269Z,33.44
2022-08-17T10:37:33.304Z,34.03
2022-08-17T10:40:18.200Z,32.63
2022-08-17T10:42:59.683Z,32.69
2022-08-17T10:45:37.386Z,34.65
2022-08-17T10:48:07.333Z,34.17
2022-08-17T10:50:56.126Z,32.27
2022-08-17T10:53:32.052Z,32.42
2022-08-17T10:56:13.975Z,32.14
2022-08-17T10:58:56.236Z,32.67
2022-08-17T11:01:38.188Z,32.10
2022-08-17T11:04:21.777Z,31.11
2022-08-17T11:07:19.309Z,31.67
2022-08-17T11:10:17.369Z,32.57
2022-08-17T11:13:17.665Z,34.49
2022-08-17T11:16:02.360Z,32.81
2022-08-17T11:18:53.929Z,31.39
2022-08-17T11:21:58.285Z,31.41
2022-08-17T11:24:37.410Z,30.97
2022-08-17T11:27:28.800Z,31.93
2022-08-17T11:30:17.418Z,31.29
2022-08-17T11:32:47.396Z,30.77
2022-08-17T11:35:20.578Z,31.33
2022-08-17T11:38:16.286Z,32.33
2022-08-17T11:40:55.468Z,31.43
2022-08-17T11:43:25.566Z,31.21
2022-08-17T11:46:07.568Z,32.61
2022-08-17T11:49:18.171Z,32.12
2022-08-17T11:51:54.568Z,32.47
2022-08-17T11:54:33.431Z,32.39
2022-08-17T11:57:26.357Z,32.36
2022-08-17T12:00:00.023Z,31.49
2022-08-17T12:02:32.909Z,33.08
2022-08-17T12:05:14.883Z,32.21
2022-08-17T12:07:52.636Z,32.84
2022-08-17T12:10:30.634Z,30.91
2022-08-17T12:12:59.516Z,31.58
2022-08-17T12:15:31.329Z,31.08
2022-08-17T12:17:58.689Z,32.11
2022-08-17T12:20:32.015Z,31.76
2022-08-17T12:23:24.439Z,31.91
2022-08-17T12:25:57.075Z,31.38
2022-08-17T12:28:33.476Z,30.68
2022-08-17T12:31:06.813Z,29.88
2022-08-17T12:33:37.184Z,29.58
2022-08-17T12:36:08.582Z,30.87
2022-08-17T12:38:37.961Z,29.21
2022-08-17T12:41:27.290Z,29.47
2022-08-17T12:44:09.581Z,28.96
2022-08-17T12:46:50.100Z,29.18
2022-08-17T12:49:31.267Z,29.55
2022-08-17T12:52:26.764Z,28.94
2022-08-17T12:55:00.741Z,30.36
2022-08-17T12:57:39.689Z,28.81
2022-08-17T13:00:34.031Z,31.42
2022-08-17T13:03:20.199Z,29.41
2022-08-17T13:05:52.869Z,28.98
2022-08-17T13:08:25.594Z,28.31
2022-08-17T13:11:01.652Z,28.57
2022-08-17T13:13:31.985Z,29.01
2022-08-17T13:16:03.720Z,29.08
2022-08-17T13:18:36.267Z,29.18
2022-08-17T13:21:02.963Z,29.68
2022-08-17T13:23:31.401Z,28.73
2022-08-17T13:26:05.187Z,30.26
2022-08-17T13:28:35.978Z,29.47
2022-08-17T13:31:24.162Z,29.94
2022-08-17T13:33:50.770Z,29.37
2022-08-17T13:36:30.176Z,29.69
2022-08-17T13:39:25.478Z,29.01
2022-08-17T13:41:55.462Z,28.34
2022-08-17T13:44:32.875Z,28.39
2022-08-17T13:47:00.443Z,27.96
2022-08-17T13:49:41.974Z,28.49
2022-08-17T13:52:52.227Z,28.42
2022-08-17T13:55:22.723Z,27.89
2022-08-17T13:58:03.951Z,29.43
2022-08-17T14:00:36.419Z,28.23
2022-08-17T14:03:04.771Z,29.09
2022-08-17T14:05:32.066Z,29.38
2022-08-17T14:08:06.544Z,29.26
2022-08-17T14:10:36.395Z,29.92
2022-08-17T14:13:04.115Z,29.48
2022-08-17T14:15:55.776Z,28.60
2022-08-17T14:18:19.021Z,29.16
2022-08-17T14:21:05.693Z,29.76
2022-08-17T14:23:32.974Z,30.01
2022-08-17T14:25:59.848Z,29.55
2022-08-17T14:28:26.395Z,29.36
2022-08-17T14:30:54.571Z,28.71
2022-08-17T14:33:22.767Z,28.90
2022-08-17T14:35:53.618Z,29.57
2022-08-17T14:38:21.243Z,28.22
2022-08-17T14:40:48.675Z,28.95
2022-08-17T14:43:15.903Z,27.72
2022-08-17T14:45:43.140Z,28.86
2022-08-17T14:48:10.127Z,28.51
2022-08-17T14:50:41.615Z,29.40
2022-08-17T14:53:10.163Z,30.14
2022-08-17T14:55:39.956Z,28.49
2022-08-17T14:58:07.604Z,28.87
2022-08-17T15:00:35.032Z,30.62
2022-08-17T15:03:02.383Z,29.80
2022-08-17T15:05:33.570Z,29.73
2022-08-17T15:08:02.339Z,30.61
2022-08-17T15:10:30.718Z,29.15
2022-08-17T15:12:58.265Z,28.44
2022-08-17T15:15:25.370Z,29.24
2022-08-17T15:17:51.971Z,28.22
2022-08-17T15:20:28.098Z,28.19
2022-08-17T15:22:55.626Z,26.75
2022-08-17T15:25:23.669Z,26.55
2022-08-17T15:27:50.578Z,24.74
2022-08-17T15:30:17.400Z,26.19
2022-08-17T15:32:50.605Z,25.71
2022-08-17T15:35:26.896Z,25.74
2022-08-17T15:37:55.533Z,25.48
2022-08-17T15:40:22.127Z,25.00
2022-08-17T15:42:49.017Z,24.12
2022-08-17T15:45:16.971Z,24.10
2022-08-17T15:47:43.575Z,24.04
2022-08-17T15:50:10.735Z,23.28
2022-08-17T15:52:40.314Z,24.10
2022-08-17T15:55:10.207Z,24.04
2022-08-17T15:57:39.436Z,23.23
2022-08-17T16:00:08.537Z,23.08
2022-08-17T16:03:46.107Z,24.06
2022-08-17T16:05:28.568Z,26.03
2022-08-17T16:07:58.604Z,26.79
2022-08-17T16:10:35.672Z,27.84
2022-08-17T16:13:04.377Z,29.38
2022-08-17T16:15:31.802Z,28.92
2022-08-17T16:17:58.979Z,30.05
2022-08-17T16:20:25.964Z,31.15
2022-08-17T16:22:54.218Z,31.04
2022-08-17T16:25:49.060Z,30.42
2022-08-17T16:28:17.499Z,30.96
2022-08-17T16:30:44.292Z,31.66
2022-08-17T16:33:15.118Z,31.43
2022-08-17T16:35:42.132Z,30.86
2022-08-17T16:38:09.529Z,30.88
2022-08-17T16:40:38.111Z,31.67
2022-08-17T16:43:10.464Z,31.02
2022-08-17T16:45:40.349Z,31.24
2022-08-17T16:48:08.429Z,31.65
2022-08-17T16:50:36.046Z,31.16
2022-08-17T16:53:10.634Z,31.37
2022-08-17T16:55:38.235Z,31.96
2022-08-17T16:58:06.511Z,32.29
2022-08-17T17:00:34.011Z,31.75
2022-08-17T17:03:19.839Z,32.05
2022-08-17T17:06:18.765Z,32.16
2022-08-17T17:09:05.720Z,31.96
2022-08-17T17:11:42.404Z,32.22
2022-08-17T17:14:28.415Z,32.78
2022-08-17T17:17:14.730Z,32.35
2022-08-17T17:19:52.019Z,33.14
2022-08-17T17:22:24.507Z,33.35
2022-08-17T17:25:00.178Z,32.43
2022-08-17T17:27:30.276Z,32.99
2022-08-17T17:30:11.108Z,33.21
2022-08-17T17:32:59.595Z,33.48
2022-08-17T17:35:33.392Z,33.71
2022-08-17T17:38:05.368Z,34.09
2022-08-17T17:40:38.193Z,34.06
2022-08-17T17:43:34.954Z,33.98
2022-08-17T17:46:27.242Z,34.54
2022-08-17T17:48:58.488Z,34.95
2022-08-17T17:51:54.980Z,35.06
2022-08-17T17:54:22.772Z,35.11
2022-08-17T17:56:58.531Z,35.46
2022-08-17T17:59:51.325Z,35.65
2022-08-17T18:02:52.725Z,36.02
2022-08-17T18:05:44.566Z,36.34
2022-08-17T18:08:34.693Z,36.56
2022-08-17T18:11:36.232Z,36.89
2022-08-17T18:14:14.359Z,37.11
2022-08-17T18:16:42.779Z,37.11
2022-08-17T18:19:14.966Z,37.23
2022-08-17T18:21:45.880Z,37.23
2022-08-17T18:24:13.847Z,37.79
2022-08-17T18:26:58.877Z,37.65
2022-08-17T18:29:36.739Z,38.31
2022-08-17T18:32:16.254Z,38.34
2022-08-17T18:34:47.590Z,38.44
2022-08-17T18:37:32.860Z,39.24
2022-08-17T18:39:59.452Z,39.37
2022-08-17T18:42:33.993Z,39.50
2022-08-17T18:45:00.671Z,39.36
2022-08-17T18:47:29.581Z,39.89
2022-08-17T18:50:21.645Z,39.77
2022-08-17T18:52:48.731Z,40.04
2022-08-17T18:55:21.514Z,40.12
2022-08-17T18:57:55.560Z,40.34
2022-08-17T19:00:42.031Z,40.59
2022-08-17T19:03:23.789Z,41.42
2022-08-17T19:06:06.517Z,41.41
2022-08-17T19:08:35.989Z,41.62
2022-08-17T19:11:08.400Z,42.26
2022-08-17T19:13:45.154Z,42.37
2022-08-17T19:16:46.704Z,42.88
2022-08-17T19:19:43.150Z,43.07
2022-08-17T19:22:30.665Z,43.00
2022-08-17T19:25:09.599Z,43.49
2022-08-17T19:27:57.734Z,43.70
2022-08-17T19:30:24.907Z,43.59
2022-08-17T19:32:53.055Z,43.94
2022-08-17T19:35:22.217Z,43.96
2022-08-17T19:37:58.592Z,44.11
2022-08-17T19:40:54.680Z,43.99
2022-08-17T19:43:51.284Z,44.03
2022-08-17T19:46:37.664Z,44.24
2022-08-17T19:49:22.099Z,44.42
2022-08-17T19:52:31.599Z,44.45
2022-08-17T19:55:09.006Z,44.58
2022-08-17T19:57:54.667Z,44.48
2022-08-17T20:00:21.324Z,44.99
2022-08-17T20:02:51.617Z,45.31
2022-08-17T20:05:29.400Z,45.51
2022-08-17T20:08:08.922Z,45.63
2022-08-17T20:10:47.281Z,45.67
2022-08-17T20:13:33.233Z,45.99
2022-08-17T20:16:00.329Z,46.11
2022-08-17T20:18:54.900Z,46.34
2022-08-17T20:21:41.563Z,46.58
2022-08-17T20:24:21.190Z,46.50
2022-08-17T20:26:59.312Z,46.46
2022-08-17T20:30:07.405Z,46.54
2022-08-17T20:32:58.291Z,46.46
2022-08-17T20:35:32.699Z,46.61
2022-08-17T20:38:32.420Z,46.53
2022-08-17T20:41:04.886Z,46.69
2022-08-17T20:43:33.860Z,46.65
2022-08-17T20:46:10.440Z,46.89
2022-08-17T20:48:42.718Z,46.87
2022-08-17T20:51:16.768Z,46.97
2022-08-17T20:53:49.412Z,47.47
2022-08-17T20:56:43.661Z,47.48
2022-08-17T20:59:25.685Z,47.24
2022-08-17T21:02:17.707Z,47.72
2022-08-17T21:05:43.339Z,47.82
2022-08-17T21:08:19.133Z,48.01
2022-08-17T21:10:47.086Z,48.58
2022-08-17T21:13:13.915Z,47.81
2022-08-17T21:15:42.104Z,48.20
2022-08-17T21:18:23.381Z,47.97
2022-08-17T21:21:21.822Z,48.50
2022-08-17T21:24:15.443Z,48.53
2022-08-17T21:26:53.795Z,48.84
2022-08-17T21:29:31.753Z,48.94
2022-08-17T21:31:59.276Z,49.38
2022-08-17T21:34:39.480Z,49.24
2022-08-17T21:37:29.390Z,49.19
2022-08-17T21:39:58.432Z,49.45
2022-08-17T21:42:29.744Z,49.59
2022-08-17T21:45:00.574Z,49.70
2022-08-17T21:47:29.966Z,49.63
2022-08-17T21:50:16.189Z,50.04
2022-08-17T21:52:43.415Z,50.51
2022-08-17T21:55:20.483Z,50.20
2022-08-17T21:57:52.980Z,50.36
2022-08-17T22:00:35.558Z,50.64
2022-08-17T22:03:04.439Z,50.46
2022-08-17T22:05:36.474Z,50.39
2022-08-17T22:08:16.726Z,50.34
2022-08-17T22:10:45.581Z,50.56
2022-08-17T22:13:19.937Z,50.40
2022-08-17T22:16:28.731Z,50.41
2022-08-17T22:18:58.870Z,50.31
2022-08-17T22:21:26.439Z,50.73
2022-08-17T22:24:06.909Z,51.07
2022-08-17T22:27:10.488Z,51.41
2022-08-17T22:29:56.895Z,51.77
2022-08-17T22:32:41.501Z,51.62
2022-08-17T22:35:29.872Z,51.78
2022-08-17T22:37:57.162Z,52.32
2022-08-17T22:40:30.692Z,52.48
2022-08-17T22:42:58.924Z,52.88
2022-08-17T22:45:28.445Z,52.51
2022-08-17T22:47:58.705Z,52.64
2022-08-17T22:50:28.692Z,52.75
2022-08-17T22:53:37.068Z,53.39
2022-08-17T22:56:23.384Z,53.52
2022-08-17T22:59:16.774Z,53.49
2022-08-17T23:01:45.798Z,53.69
2022-08-17T23:04:32.620Z,53.81
2022-08-17T23:06:59.308Z,53.90
2022-08-17T23:09:25.820Z,53.82
2022-08-17T23:11:58.840Z,54.04
2022-08-17T23:14:31.529Z,54.83
2022-08-17T23:16:59.366Z,55.57
2022-08-17T23:19:27.351Z,55.14
2022-08-17T23:21:58.036Z,55.04
2022-08-17T23:24:27.288Z,55.76
2022-08-17T23:26:57.047Z,55.19
2022-08-17T23:29:26.209Z,56.12
2022-08-17T23:31:52.960Z,55.89
2022-08-17T23:34:19.702Z,56.09
2022-08-17T23:36:52.410Z,56.06
2022-08-17T23:39:24.664Z,56.04
2022-08-17T23:41:55.636Z,56.19
2022-08-17T23:44:24.986Z,56.07
2022-08-17T23:46:52.324Z,55.87
2022-08-17T23:49:19.222Z,56.01
2022-08-17T23:51:47.632Z,56.24
2022-08-17T23:54:25.827Z,56.79
2022-08-17T23:56:52.903Z,56.61
2022-08-17T23:59:22.492Z,57.01
